Time,TemperatureF,DewpointF,PressureIn,WindDirection,WindDirectionDegrees,WindSpeedMPH,WindSpeedGustMPH,Humidity,HourlyPrecipIn,Conditions,Clouds,dailyrainin,SolarRadiationWatts/m^2,SoftwareType,DateUTC
2014-02-18 00:03:00,28.0,13.0,-100.00,SSE,159,5.0,10.0,53,0.00,,,0.00,0.000000,,2014-02-18 05:03:00,
2014-02-18 00:12:00,28.0,13.0,-100.00,SSE,159,5.0,10.0,53,0.00,,,0.00,0.000000,,2014-02-18 05:12:00,
2014-02-18 00:43:00,25.0,23.0,-100.00,SSE,156,4.0,12.0,93,0.00,,,0.00,0.000000,,2014-02-18 05:43:00,
2014-02-18 00:53:00,25.0,23.0,-100.00,SSE,156,4.0,12.0,93,0.00,,,0.00,0.000000,,2014-02-18 05:53:00,
2014-02-18 01:02:00,25.0,23.0,-100.00,SSE,156,4.0,12.0,93,0.00,,,0.00,0.000000,,2014-02-18 06:02:00,
2014-02-18 01:12:00,25.0,23.0,-100.00,SSE,156,4.0,12.0,93,0.00,,,0.00,0.000000,,2014-02-18 06:12:00,
2014-02-18 01:42:00,26.0,23.0,-100.00,SSE,161,6.0,13.0,88,0.00,,,0.00,0.000000,,2014-02-18 06:42:00,
2014-02-18 01:52:00,26.0,23.0,-100.00,SSE,161,6.0,13.0,88,0.00,,,0.00,0.000000,,2014-02-18 06:52:00,
2014-02-18 02:02:00,26.0,23.0,-100.00,SSE,161,6.0,13.0,88,0.00,,,0.00,0.000000,,2014-02-18 07:02:00,
2014-02-18 02:11:00,26.0,23.0,-100.00,SSE,161,6.0,13.0,88,0.00,,,0.00,0.000000,,2014-02-18 07:11:00,
2014-02-18 02:42:00,26.0,22.0,-100.00,SSE,160,6.0,15.0,86,0.00,,,0.00,0.000000,,2014-02-18 07:42:00,
2014-02-18 02:52:00,26.0,22.0,-100.00,SSE,160,6.0,15.0,86,0.00,,,0.00,0.000000,,2014-02-18 07:52:00,
2014-02-18 03:02:00,26.0,22.0,-100.00,SSE,160,6.0,15.0,86,0.00,,,0.00,0.000000,,2014-02-18 08:02:00,
2014-02-18 03:11:00,26.0,22.0,-100.00,SSE,160,6.0,15.0,86,0.00,,,0.00,0.000000,,2014-02-18 08:11:00,
2014-02-18 03:42:00,27.0,23.0,-100.00,SSE,161,6.0,12.0,85,0.00,,,0.00,0.000000,,2014-02-18 08:42:00,
2014-02-18 03:52:00,27.0,23.0,-100.00,SSE,161,6.0,12.0,85,0.00,,,0.00,0.000000,,2014-02-18 08:52:00,
2014-02-18 04:02:00,27.0,23.0,-100.00,SSE,161,6.0,12.0,85,0.00,,,0.00,0.000000,,2014-02-18 09:02:00,
2014-02-18 04:12:00,27.0,23.0,-100.00,SSE,161,6.0,12.0,85,0.00,,,0.00,0.000000,,2014-02-18 09:12:00,
2014-02-18 04:43:00,26.0,21.0,-100.00,SSE,160,5.0,15.0,82,0.00,,,0.00,0.000000,,2014-02-18 09:43:00,
2014-02-18 04:54:00,26.0,21.0,-100.00,SSE,160,5.0,15.0,82,0.00,,,0.00,0.000000,,2014-02-18 09:54:00,
2014-02-18 05:04:00,26.0,21.0,-100.00,SSE,160,5.0,15.0,82,0.00,,,0.00,0.000000,,2014-02-18 10:04:00,
2014-02-18 05:12:00,26.0,21.0,-100.00,SSE,160,5.0,15.0,82,0.00,,,0.00,0.000000,,2014-02-18 10:12:00,
2014-02-18 05:43:00,27.0,21.0,-100.00,SSE,156,4.0,15.0,79,0.00,,,0.00,0.000000,,2014-02-18 10:43:00,
2014-02-18 05:52:00,27.0,21.0,-100.00,SSE,156,4.0,15.0,79,0.00,,,0.00,0.000000,,2014-02-18 10:52:00,
2014-02-18 06:03:00,27.0,21.0,-100.00,SSE,156,4.0,15.0,79,0.00,,,0.00,0.000000,,2014-02-18 11:03:00,
2014-02-18 06:12:00,27.0,21.0,-100.00,SSE,156,4.0,15.0,79,0.00,,,0.00,0.000000,,2014-02-18 11:12:00,
2014-02-18 06:42:00,26.0,21.0,-100.00,SSE,158,5.0,10.0,81,0.00,,,0.00,0.000000,,2014-02-18 11:42:00,
2014-02-18 06:53:00,26.0,21.0,-100.00,SSE,158,5.0,10.0,81,0.00,,,0.00,0.000000,,2014-02-18 11:53:00,
2014-02-18 07:02:00,26.0,21.0,-100.00,SSE,158,5.0,10.0,81,0.00,,,0.00,0.000000,,2014-02-18 12:02:00,
2014-02-18 07:12:00,26.0,21.0,-100.00,SSE,158,5.0,10.0,81,0.00,,,0.00,0.000000,,2014-02-18 12:12:00,
2014-02-18 07:42:00,27.0,22.0,-100.00,South,169,4.0,11.0,81,0.00,,,0.00,2.000000,,2014-02-18 12:42:00,
2014-02-18 07:53:00,27.0,22.0,-100.00,South,169,4.0,11.0,81,0.00,,,0.00,2.000000,,2014-02-18 12:53:00,
2014-02-18 08:02:00,27.0,22.0,-100.00,South,169,4.0,11.0,81,0.00,,,0.00,2.000000,,2014-02-18 13:02:00,
2014-02-18 08:11:00,27.0,22.0,-100.00,South,169,4.0,11.0,81,0.00,,,0.00,2.000000,,2014-02-18 13:11:00,
2014-02-18 08:42:00,31.0,25.0,-100.00,South,186,2.0,10.0,78,0.00,,,0.00,67.000000,,2014-02-18 13:42:00,
2014-02-18 08:53:00,31.0,25.0,-100.00,South,186,2.0,10.0,78,0.00,,,0.00,67.000000,,2014-02-18 13:53:00,
2014-02-18 09:02:00,31.0,25.0,-100.00,South,186,2.0,10.0,78,0.00,,,0.00,67.000000,,2014-02-18 14:02:00,
2014-02-18 09:12:00,31.0,25.0,-100.00,South,186,2.0,10.0,78,0.00,,,0.00,67.000000,,2014-02-18 14:12:00,
2014-02-18 10:11:00,37.0,25.0,-100.00,South,178,4.0,7.0,61,0.03,,,0.03,248.000000,,2014-02-18 15:11:00,
2014-02-18 12:12:00,44.0,28.0,-100.00,SW,229,2.0,7.0,54,-99.99,,,0.06,346.000000,,2014-02-18 17:12:00,
2014-02-18 15:42:00,55.0,26.0,-100.00,West,274,3.0,11.0,32,0.00,,,0.06,482.000000,,2014-02-18 20:42:00,
2014-02-18 15:52:00,55.0,26.0,-100.00,West,274,3.0,11.0,32,0.00,,,0.06,482.000000,,2014-02-18 20:52:00,
2014-02-18 16:02:00,55.0,26.0,-100.00,West,274,3.0,11.0,32,0.00,,,0.06,482.000000,,2014-02-18 21:02:00,
2014-02-18 16:11:00,55.0,26.0,-100.00,West,274,3.0,11.0,32,0.00,,,0.06,482.000000,,2014-02-18 21:11:00,
2014-02-18 16:13:00,51.0,25.0,-100.00,WNW,285,3.0,11.0,36,0.00,,,0.06,97.000000,,2014-02-18 21:13:00,
2014-02-18 16:43:00,51.0,25.0,-100.00,WNW,285,3.0,11.0,36,0.00,,,0.06,97.000000,,2014-02-18 21:43:00,
2014-02-18 16:53:00,51.0,25.0,-100.00,WNW,285,3.0,11.0,36,0.00,,,0.06,97.000000,,2014-02-18 21:53:00,
2014-02-18 17:03:00,51.0,25.0,-100.00,WNW,285,3.0,11.0,36,0.00,,,0.06,97.000000,,2014-02-18 22:03:00,
2014-02-18 17:43:00,50.0,21.0,-100.00,West,274,2.0,8.0,32,0.00,,,0.06,66.000000,,2014-02-18 22:43:00,
2014-02-18 17:54:00,50.0,21.0,-100.00,West,274,2.0,8.0,32,0.00,,,0.06,66.000000,,2014-02-18 22:54:00,
2014-02-18 18:03:00,50.0,21.0,-100.00,West,274,2.0,8.0,32,0.00,,,0.06,66.000000,,2014-02-18 23:03:00,
2014-02-18 18:12:00,50.0,21.0,-100.00,West,274,2.0,8.0,32,0.00,,,0.06,66.000000,,2014-02-18 23:12:00,
2014-02-18 18:42:00,46.0,22.0,-100.00,SE,141,2.0,4.0,39,0.00,,,0.06,7.000000,,2014-02-18 23:42:00,
2014-02-18 18:53:00,46.0,22.0,-100.00,SE,141,2.0,4.0,39,0.00,,,0.06,7.000000,,2014-02-18 23:53:00,
2014-02-18 19:02:00,46.0,22.0,-100.00,SE,141,2.0,4.0,39,0.00,,,0.06,7.000000,,2014-02-19 00:02:00,
2014-02-18 19:11:00,46.0,22.0,-100.00,SE,141,2.0,4.0,39,0.00,,,0.06,7.000000,,2014-02-19 00:11:00,
2014-02-18 19:42:00,41.0,22.0,-100.00,North,1,1.0,4.0,46,0.00,,,0.06,0.000000,,2014-02-19 00:42:00,
2014-02-18 19:52:00,41.0,22.0,-100.00,North,1,1.0,4.0,46,0.00,,,0.06,0.000000,,2014-02-19 00:52:00,
2014-02-18 20:02:00,41.0,22.0,-100.00,North,1,1.0,4.0,46,0.00,,,0.06,0.000000,,2014-02-19 01:02:00,
2014-02-18 20:11:00,41.0,22.0,-100.00,North,1,1.0,4.0,46,0.00,,,0.06,0.000000,,2014-02-19 01:11:00,
2014-02-18 20:42:00,39.0,24.0,-100.00,SE,141,2.0,4.0,55,0.00,,,0.06,0.000000,,2014-02-19 01:42:00,
2014-02-18 20:52:00,39.0,24.0,-100.00,SE,141,2.0,4.0,55,0.00,,,0.06,0.000000,,2014-02-19 01:52:00,
2014-02-18 21:02:00,39.0,24.0,-100.00,SE,141,2.0,4.0,55,0.00,,,0.06,0.000000,,2014-02-19 02:02:00,
2014-02-18 21:11:00,39.0,24.0,-100.00,SE,141,2.0,4.0,55,0.00,,,0.06,0.000000,,2014-02-19 02:11:00,
2014-02-18 21:42:00,36.0,21.0,-100.00,ESE,105,1.0,5.0,53,0.00,,,0.06,0.000000,,2014-02-19 02:42:00,
2014-02-18 21:53:00,36.0,21.0,-100.00,ESE,105,1.0,5.0,53,0.00,,,0.06,0.000000,,2014-02-19 02:53:00,
2014-02-18 22:02:00,36.0,21.0,-100.00,ESE,105,1.0,5.0,53,0.00,,,0.06,0.000000,,2014-02-19 03:02:00,
2014-02-18 22:12:00,36.0,21.0,-100.00,ESE,105,1.0,5.0,53,0.00,,,0.06,0.000000,,2014-02-19 03:12:00,
2014-02-18 22:13:00,33.0,20.0,-100.00,SE,137,2.0,5.0,58,0.00,,,0.06,0.000000,,2014-02-19 03:13:00,
2014-02-18 22:43:00,33.0,20.0,-100.00,SE,137,2.0,5.0,58,0.00,,,0.06,0.000000,,2014-02-19 03:43:00,
2014-02-18 22:53:00,33.0,20.0,-100.00,SE,137,2.0,5.0,58,0.00,,,0.06,0.000000,,2014-02-19 03:53:00,
2014-02-18 23:03:00,33.0,20.0,-100.00,SE,137,2.0,5.0,58,0.00,,,0.06,0.000000,,2014-02-19 04:03:00,
2014-02-18 23:42:00,30.0,22.0,-100.00,South,190,2.0,3.0,71,0.00,,,-99.99,0.000000,,2014-02-19 04:42:00,
2014-02-18 23:53:00,30.0,22.0,-100.00,South,190,2.0,3.0,71,0.00,,,-99.99,0.000000,,2014-02-19 04:53:00,